Data for 11/01/2010

Time Sea-Level Adjusted Pressure Absolute Pressure Temperature Relative Humidity Dew Point   
(mb) (inHg) (mb) (inHg) (C) (F) (%) (C) (F)
00:05 1025 30.27 854 25.22 5.1 41.2 77 1.5 34.7
00:10 1025 30.27 854 25.22 5.1 41.1 78 1.6 34.8
00:15 1025 30.27 854 25.22 5 41.1 77 1.4 34.5
00:20 1025 30.27 854 25.22 4.9 40.9 79 1.6 34.8
00:25 1025 30.27 854 25.22 4.8 40.7 79 1.6 34.9
00:30 1025 30.27 854 25.22 4.8 40.6 79 1.4 34.5
00:35 1025 30.27 854 25.22 4.7 40.5 79 1.4 34.5
00:40 1025 30.27 854 25.22 4.7 40.5 78 1.2 34.2
00:45 1025 30.27 854 25.22 4.8 40.6 80 1.6 34.9
00:50 1025 30.27 854 25.22 4.5 40 83 1.8 35.3
00:55 1025 30.27 854 25.22 4.4 39.9 81 1.4 34.6
01:00 1025 30.27 854 25.22 4.5 40.1 81 1.4 34.6
01:05 1025 30.27 854 25.22 4.6 40.3 77 0.9 33.7
01:10 1025 30.27 854 25.22 4.5 40.1 77 0.9 33.5
01:15 1025 30.27 854 25.22 4.3 39.8 78 0.8 33.4
01:20 1025 30.27 854 25.22 4.3 39.7 79 0.9 33.7
01:25 1025 30.27 854 25.22 4.1 39.3 81 1.1 34
01:30 1025 30.27 854 25.22 3.7 38.7 83 1.1 33.9
01:35 1025 30.27 854 25.22 3.4 38.1 83 0.7 33.3
01:40 1025 30.27 854 25.22 3.5 38.2 82 0.6 33.1
01:45 1025 30.27 854 25.22 3.6 38.5 81 0.7 33.3
01:50 1025 30.27 854 25.22 3.6 38.5 81 0.7 33.2
01:55 1025 30.27 854 25.22 3.5 38.3 82 0.7 33.3
02:00 1025 30.27 855 25.25 3.1 37.7 85 0.9 33.6
02:05 1025 30.27 855 25.25 2.8 37.1 85 0.6 33.1
02:10 1025 30.27 855 25.25 2.9 37.3 84 0.5 32.9
02:15 1026 30.3 855 25.25 3.1 37.5 83 0.4 32.7
02:20 1026 30.3 855 25.25 3.1 37.6 83 0.4 32.8
02:25 1026 30.3 855 25.25 3 37.4 83 0.4 32.7
02:30 1026 30.3 855 25.25 2.9 37.2 83 0.3 32.6
02:35 1026 30.3 855 25.25 2.7 36.8 84 0.3 32.5
02:40 1026 30.3 855 25.25 2.1 35.8 82 -0.6 30.9
02:45 1026 30.3 855 25.25 2 35.5 82 -0.9 30.4
02:50 1026 30.3 855 25.25 2.4 36.4 80 -0.6 30.9
02:55 1026 30.3 855 25.25 2.4 36.3 82 -0.4 31.2
03:00 1026 30.3 855 25.25 1.6 34.9 86 -0.5 31
03:05 1026 30.3 855 25.25 1.2 34.1 87 -0.8 30.5
03:10 1026 30.3 855 25.25 1.3 34.4 84 -1 30.2
03:15 1026 30.3 855 25.25 1.5 34.7 84 -0.9 30.3
03:20 1026 30.3 855 25.25 1.6 34.9 84 -0.9 30.4
03:25 1026 30.3 855 25.25 1.7 35.1 83 -0.8 30.5
03:30 1026 30.3 855 25.25 1.9 35.3 83 -0.8 30.6
03:35 1026 30.3 855 25.25 1.8 35.2 84 -0.6 30.9
03:40 1026 30.3 855 25.25 1.8 35.2 83 -0.8 30.6
03:45 1026 30.3 855 25.25 1.8 35.2 83 -0.8 30.5
03:50 1026 30.3 855 25.25 1.6 34.9 84 -0.9 30.4
03:55 1026 30.3 855 25.25 1.3 34.4 86 -0.8 30.5
04:00 1026 30.3 855 25.25 1.1 33.9 85 -1.1 30
04:05 1026 30.3 855 25.25 1.3 34.3 84 -1.2 29.9
04:10 1026 30.3 855 25.25 1.5 34.7 82 -1.3 29.7
04:15 1026 30.3 855 25.25 1.4 34.5 83 -1.2 29.9
04:20 1026 30.3 855 25.25 1.3 34.3 84 -1.2 29.9
04:25 1026 30.3 855 25.25 1.2 34.1 84 -1.2 29.8
04:30 1026 30.3 855 25.25 1 33.9 85 -1.3 29.7
04:35 1026 30.3 855 25.25 0.7 33.3 86 -1.3 29.6
04:40 1026 30.3 855 25.25 0.8 33.4 86 -1.2 29.8
04:45 1026 30.3 855 25.25 1 33.9 86 -1.1 30
04:50 1026 30.3 855 25.25 1.2 34.1 84 -1.2 29.8
04:55 1026 30.3 855 25.25 1.3 34.3 83 -1.2 29.8
05:00 1026 30.3 855 25.25 1.1 34.1 82 -1.5 29.2
05:05 1026 30.3 855 25.25 1.8 35.2 75 -2.3 27.9
05:10 1026 30.3 855 25.25 2.2 35.9 72 -2.3 27.9
05:15 1026 30.3 855 25.25 2 35.7 76 -1.7 28.9
05:20 1026 30.3 855 25.25 2.2 36 75 -1.8 28.8
05:25 1026 30.3 855 25.25 2.2 36 76 -1.6 29.1
05:30 1026 30.3 855 25.25 2 35.6 75 -1.9 28.6
05:35 1026 30.3 855 25.25 1.9 35.4 77 -1.7 28.9
05:40 1026 30.3 855 25.25 1.8 35.2 78 -1.7 28.9
05:45 1026 30.3 855 25.25 1.8 35.3 78 -1.5 29.2
05:50 1026 30.3 855 25.25 1.9 35.4 78 -1.5 29.3
05:55 1026 30.3 855 25.25 2 35.7 76 -1.8 28.8
06:00 1026 30.3 856 25.28 2.1 35.8 75 -1.8 28.7
06:05 1026 30.3 856 25.28 2.3 36.2 72 -2.1 28.2
06:10 1026 30.3 856 25.28 2.3 36.1 71 -2.4 27.7
06:15 1027 30.33 856 25.28 2.3 36.1 70 -2.6 27.4
06:20 1027 30.33 856 25.28 2.1 35.7 72 -2.5 27.5
06:25 1027 30.33 856 25.28 2.1 35.7 72 -2.5 27.5
06:30 1027 30.33 856 25.28 1.7 35 74 -2.4 27.6
06:35 1027 30.33 856 25.28 1.6 34.8 74 -2.7 27.2
06:40 1027 30.33 856 25.28 1.7 35 73 -2.7 27.2
06:45 1027 30.33 856 25.28 1.6 34.9 74 -2.5 27.4
06:50 1027 30.33 856 25.28 1.4 34.5 75 -2.5 27.5
06:55 1027 30.33 856 25.28 1.2 34.2 76 -2.5 27.5
07:00 1027 30.33 856 25.28 0.9 33.7 78 -2.4 27.7
07:05 1027 30.33 856 25.28 0.5 32.9 80 -2.5 27.5
07:10 1027 30.33 856 25.28 -0.2 31.7 82 -2.9 26.7
07:15 1027 30.33 856 25.28 0.1 32.1 81 -2.7 27.1
07:20 1027 30.33 856 25.28 0.2 32.4 79 -3.1 26.5
07:25 1027 30.33 856 25.28 0.7 33.2 76 -3 26.5
07:30 1027 30.33 856 25.28 0.3 32.5 81 -2.6 27.2
07:35 1027 30.33 856 25.28 0.2 32.3 79 -3 26.6
07:40 1027 30.33 856 25.28 0.3 32.5 79 -2.9 26.8
07:45 1027 30.33 856 25.28 0.5 32.9 77 -3.1 26.5
07:50 1027 30.33 856 25.28 0.9 33.7 75 -2.9 26.7
07:55 1027 30.33 856 25.28 0.8 33.4 77 -2.7 27.1
08:00 1027 30.33 856 25.28 0.3 32.6 79 -3 26.7
08:05 1027 30.33 856 25.28 0.1 32.3 80 -2.9 26.9
08:10 1027 30.33 856 25.28 0.2 32.4 79 -2.9 26.7
08:15 1027 30.33 856 25.28 0.3 32.5 79 -3 26.7
08:20 1027 30.33 856 25.28 0.4 32.7 77 -3.1 26.4
08:25 1027 30.33 856 25.28 0.5 32.8 76 -3.3 26
08:30 1027 30.33 856 25.28 0.3 32.6 76 -3.4 25.9
08:35 1027 30.33 856 25.28 0.3 32.5 76 -3.5 25.8
08:40 1027 30.33 856 25.28 0.4 32.7 74 -3.7 25.4
08:45 1027 30.33 856 25.28 0.5 32.9 75 -3.4 25.8
08:50 1027 30.33 857 25.31 0.7 33.2 76 -3.1 26.3
08:55 1027 30.33 857 25.31 0.9 33.6 73 -3.4 25.9
09:00 1027 30.33 857 25.31 1.1 34 73 -3.2 26.2
09:05 1027 30.33 857 25.31 1.1 33.9 73 -3.2 26.2
09:10 1028 30.36 857 25.31 1.2 34.2 72 -3.3 26.1
09:15 1027 30.33 857 25.31 1.8 35.2 69 -3.2 26.2
09:20 1027 30.33 857 25.31 2 35.7 69 -3 26.6
09:25 1028 30.36 857 25.31 2.3 36.2 67 -3.2 26.2
09:30 1028 30.36 857 25.31 2.7 36.8 65 -3.2 26.3
09:35 1028 30.36 857 25.31 3.6 38.4 62 -3.1 26.3
09:40 1028 30.36 857 25.31 4.3 39.8 60 -2.8 26.9
09:45 1028 30.36 857 25.31 4.2 39.6 61 -2.6 27.4
09:50 1028 30.36 857 25.31 4 39.1 61 -2.8 26.9
09:55 1028 30.36 857 25.31 3.9 39 63 -2.4 27.7
10:00 1028 30.36 857 25.31 3.7 38.7 64 -2.5 27.6
10:05 1028 30.36 857 25.31 3.6 38.6 63 -2.8 27
10:10 1028 30.36 857 25.31 4.4 39.9 62 -2.1 28.1
10:15 1028 30.36 857 25.31 5 40.9 60 -2.1 28.2
10:20 1028 30.36 857 25.31 5.2 41.4 62 -1.6 29.2
10:25 1028 30.36 857 25.31 5.4 41.8 59 -1.9 28.5
10:30 1028 30.36 857 25.31 6 42.7 54 -2.5 27.5
10:35 1028 30.36 857 25.31 6.3 43.3 55 -2.2 28.1
10:40 1028 30.36 857 25.31 6.5 43.8 56 -1.7 29
10:45 1028 30.36 857 25.31 6.8 44.2 55 -1.6 29.2
10:50 1028 30.36 857 25.31 7.5 45.5 51 -2 28.4
10:55 1028 30.36 857 25.31 7.7 45.9 51 -1.6 29.1
11:00 1028 30.36 857 25.31 8 46.3 51 -1.5 29.4
11:05 1028 30.36 857 25.31 7.9 46.2 51 -1.5 29.3
11:10 1028 30.36 857 25.31 8.3 46.9 49 -1.8 28.8
11:15 1028 30.36 857 25.31 8.1 46.7 48 -2.1 28.2
11:20 1028 30.36 857 25.31 7.8 46 49 -2.1 28.1
11:25 1028 30.36 857 25.31 7.3 45.2 53 -1.5 29.2
11:30 1028 30.36 857 25.31 7.1 44.7 53 -1.8 28.8
11:35 1028 30.36 857 25.31 7.2 45 52 -2.1 28.3
11:40 1028 30.36 857 25.31 7.4 45.3 49 -2.5 27.5
11:45 1028 30.36 857 25.31 7.5 45.5 51 -1.9 28.6
11:50 1028 30.36 857 25.31 8.4 47.1 49 -1.7 28.9
11:55 1028 30.36 857 25.31 8.7 47.6 48 -1.8 28.8
12:00 1028 30.36 857 25.31 8.8 47.9 47 -1.7 28.9
12:05 1028 30.36 857 25.31 9.7 49.5 46 -1.4 29.4
12:10 1028 30.36 857 25.31 9 48.2 44 -2.5 27.5
12:15 1028 30.36 857 25.31 9.6 49.3 42 -2.6 27.3
12:20 1028 30.36 857 25.31 10.8 51.4 35 -3.9 24.9
12:25 1028 30.36 857 25.31 11.4 52.6 35 -3.3 26.1
12:30 1028 30.36 857 25.31 11.9 53.3 34 -3.6 25.5
12:35 1028 30.36 857 25.31 12.2 53.9 34 -3 26.5
12:40 1028 30.36 857 25.31 11.6 52.8 35 -3.5 25.7
12:45 1028 30.36 857 25.31 12.1 53.7 32 -4.1 24.7
12:50 1028 30.36 857 25.31 11.3 52.4 34 -3.8 25.1
12:55 1028 30.36 857 25.31 12.4 54.4 34 -3.1 26.5
13:00 1028 30.36 857 25.31 13 55.5 33 -2.9 26.8
13:05 1028 30.36 857 25.31 13.4 56.2 32 -3 26.7
13:10 1028 30.36 857 25.31 12.6 54.7 34 -2.7 27.2
13:15 1028 30.36 857 25.31 12.8 55 34 -2.7 27.1
13:20 1028 30.36 857 25.31 13 55.4 35 -2.2 28
13:25 1028 30.36 857 25.31 12.8 55 34 -2.7 27.2
13:30 1027 30.33 857 25.31 13.1 55.5 33 -2.9 26.8
13:35 1027 30.33 857 25.31 12.9 55.3 33 -2.9 26.8
13:40 1027 30.33 856 25.28 12.6 54.7 34 -2.9 26.8
13:45 1027 30.33 856 25.28 12.7 54.8 33 -3 26.6
13:50 1027 30.33 856 25.28 12.3 54.2 35 -2.8 27
13:55 1027 30.33 856 25.28 12.6 54.7 33 -3.3 26.1
14:00 1027 30.33 856 25.28 13.4 56.1 32 -3.1 26.5
14:05 1027 30.33 856 25.28 13.6 56.5 33 -2.1 28.2
14:10 1027 30.33 856 25.28 12.3 54.2 36 -2.1 28.3
14:15 1027 30.33 856 25.28 12.5 54.6 35 -2.6 27.4
14:20 1027 30.33 856 25.28 13.6 56.4 32 -2.8 27
14:25 1027 30.33 856 25.28 14.6 58.4 31 -2.4 27.7
14:30 1027 30.33 856 25.28 15.2 59.3 29 -2.6 27.4
14:35 1027 30.33 856 25.28 14.9 58.7 31 -2.1 28.3
14:40 1027 30.33 856 25.28 13.4 56.2 34 -2.1 28.2
14:45 1026 30.3 856 25.28 12.6 54.6 34 -2.9 26.9
14:50 1026 30.3 855 25.25 13.4 56.2 33 -2.6 27.3
14:55 1027 30.33 856 25.28 14.3 57.7 30 -2.8 27
15:00 1027 30.33 856 25.28 14.1 57.4 32 -2.3 27.9
15:05 1027 30.33 856 25.28 13.9 57.1 32 -2.5 27.4
15:10 1027 30.33 856 25.28 14.4 57.8 32 -2 28.4
15:15 1027 30.33 856 25.28 14.2 57.5 31 -2.6 27.3
15:20 1026 30.3 856 25.28 14.1 57.3 32 -2.5 27.5
15:25 1026 30.3 856 25.28 14.1 57.4 31 -2.7 27.1
15:30 1027 30.33 856 25.28 14.3 57.7 32 -2.2 28
15:35 1027 30.33 856 25.28 14.5 58.1 31 -2.3 27.8
15:40 1027 30.33 856 25.28 14.4 57.8 31 -2.3 27.9
15:45 1027 30.33 856 25.28 14.3 57.7 31 -2.4 27.7
15:50 1027 30.33 856 25.28 14.4 57.9 30 -2.8 26.9
15:55 1027 30.33 856 25.28 14.5 58 30 -3 26.7
16:00 1027 30.33 856 25.28 13.5 56.4 32 -2.7 27.2
16:05 1026 30.3 856 25.28 13.6 56.4 31 -3.3 26.1
16:10 1026 30.3 856 25.28 14 57.2 30 -3.3 26.1
16:15 1026 30.3 856 25.28 13.3 55.9 32 -2.9 26.7
16:20 1026 30.3 856 25.28 13.5 56.4 31 -3.1 26.4
16:25 1026 30.3 856 25.28 13.7 56.6 32 -2.8 27
16:30 1027 30.33 856 25.28 13.3 55.9 31 -3.2 26.2
16:35 1027 30.33 856 25.28 13.4 56.1 31 -3.3 26.1
16:40 1027 30.33 856 25.28 13.4 56.1 31 -3.3 26.1
16:45 1027 30.33 856 25.28 13.4 56 31 -3.5 25.8
16:50 1027 30.33 856 25.28 13.3 55.9 31 -3.3 26
16:55 1027 30.33 856 25.28 13.9 57 30 -3.3 26
17:00 1027 30.33 856 25.28 14.2 57.5 31 -2.7 27.2
17:05 1027 30.33 856 25.28 13.5 56.4 31 -3 26.6
17:10 1027 30.33 856 25.28 13.6 56.4 32 -2.9 26.8
17:15 1027 30.33 856 25.28 13.6 56.6 32 -2.7 27.1
17:20 1027 30.33 856 25.28 13.6 56.5 32 -2.7 27.1
17:25 1027 30.33 856 25.28 13.4 56.2 32 -2.8 27
17:30 1027 30.33 856 25.28 13.2 55.8 33 -2.7 27.2
17:35 1027 30.33 856 25.28 13 55.4 33 -2.8 27
17:40 1027 30.33 856 25.28 12.9 55.2 33 -2.8 27
17:45 1027 30.33 856 25.28 12.6 54.6 34 -2.7 27.2
17:50 1027 30.33 856 25.28 12.6 54.7 34 -2.9 26.7
17:55 1027 30.33 856 25.28 12.7 54.9 34 -2.7 27.1
18:00 1027 30.33 856 25.28 12.9 55.1 34 -2.4 27.6
18:05 1027 30.33 856 25.28 12.9 55.3 35 -2.2 28.1
18:10 1027 30.33 856 25.28 12.9 55.3 35 -2.2 28
18:15 1027 30.33 856 25.28 12.9 55.3 35 -2.1 28.2
18:20 1027 30.33 856 25.28 12.9 55.2 35 -2 28.3
18:25 1027 30.33 856 25.28 12.7 54.9 36 -1.9 28.6
18:30 1027 30.33 856 25.28 12.5 54.6 38 -1.3 29.7
18:35 1027 30.33 856 25.28 12.3 54.2 39 -1.4 29.6
18:40 1027 30.33 856 25.28 12.3 54.2 38 -1.4 29.4
18:45 1027 30.33 856 25.28 12.3 54.2 37 -1.9 28.6
18:50 1027 30.33 856 25.28 12.4 54.4 38 -1.5 29.3
18:55 1027 30.33 856 25.28 12.3 54.1 41 -0.6 31
19:00 1027 30.33 856 25.28 11.7 53.1 43 -0.4 31.2
19:05 1027 30.33 856 25.28 11.3 52.4 45 -0.1 31.8
19:10 1027 30.33 856 25.28 11 51.7 48 0.3 32.6
19:15 1027 30.33 857 25.31 11 51.7 49 0.7 33.2
19:20 1027 30.33 857 25.31 10.9 51.6 49 0.7 33.3
19:25 1027 30.33 857 25.31 10.8 51.4 51 1 33.9
19:30 1028 30.36 857 25.31 10.6 51.1 53 1.5 34.8
19:35 1028 30.36 857 25.31 10.2 50.3 56 1.7 35.1
19:40 1028 30.36 857 25.31 10.1 50.1 56 1.6 34.9
19:45 1028 30.36 857 25.31 9.8 49.6 57 1.6 34.9
19:50 1028 30.36 857 25.31 9.6 49.3 58 1.7 35.1
19:55 1028 30.36 857 25.31 9.4 48.9 59 1.9 35.3
20:00 1028 30.36 857 25.31 9.3 48.7 59 1.8 35.3
20:05 1028 30.36 857 25.31 9.3 48.7 59 1.7 35.1
20:10 1028 30.36 857 25.31 9.3 48.7 53 0.3 32.6
20:15 1028 30.36 857 25.31 9.4 48.9 58 1.7 35.1
20:20 1028 30.36 857 25.31 9.1 48.3 58 1.3 34.3
20:25 1028 30.36 857 25.31 8.8 47.9 57 0.9 33.5
20:30 1027 30.33 857 25.31 8.8 47.8 57 0.7 33.3
20:35 1028 30.36 857 25.31 8.7 47.7 57 0.7 33.3
20:40 1027 30.33 857 25.31 8.6 47.5 56 0.4 32.8
20:45 1028 30.36 857 25.31 8.8 47.8 56 0.5 32.9
20:50 1028 30.36 857 25.31 8.6 47.5 51 -0.9 30.3
20:55 1028 30.36 857 25.31 9.1 48.5 51 -0.5 31.1
21:00 1028 30.36 857 25.31 9 48.2 51 -0.5 31.1
21:05 1028 30.36 857 25.31 8.9 48.1 53 -0.1 31.9
21:10 1028 30.36 857 25.31 8.7 47.7 53 -0.2 31.6
21:15 1028 30.36 857 25.31 8.3 46.9 54 -0.3 31.4
21:20 1028 30.36 857 25.31 8.1 46.5 54 -0.7 30.8
21:25 1028 30.36 857 25.31 8.2 46.7 55 -0.3 31.5
21:30 1028 30.36 857 25.31 8.1 46.5 57 -0 32
21:35 1028 30.36 857 25.31 8 46.4 57 0.1 32.2
21:40 1028 30.36 857 25.31 8.2 46.7 57 0.2 32.3
21:45 1028 30.36 857 25.31 8.3 46.9 56 0.2 32.3
21:50 1028 30.36 857 25.31 8.3 46.9 57 0.3 32.5
21:55 1028 30.36 857 25.31 8.2 46.7 56 0 32
22:00 1028 30.36 857 25.31 8.2 46.7 57 0.2 32.3
22:05 1028 30.36 857 25.31 8.1 46.6 57 0.2 32.4
22:10 1028 30.36 857 25.31 8 46.4 57 0.1 32.2
22:15 1028 30.36 857 25.31 7.7 45.8 61 0.8 33.4
22:20 1028 30.36 857 25.31 7.3 45.2 63 0.9 33.6
22:25 1028 30.36 857 25.31 7.1 44.8 65 1 33.8
22:30 1028 30.36 857 25.31 7 44.5 60 -0.3 31.5
22:35 1028 30.36 857 25.31 7.2 45 61 0.2 32.4
22:40 1028 30.36 857 25.31 7.2 44.9 60 -0.1 31.8
22:45 1028 30.36 857 25.31 7.3 45.1 61 0.3 32.5
22:50 1028 30.36 857 25.31 7.2 45 60 -0.1 31.9
22:55 1028 30.36 857 25.31 6.7 44.1 64 0.5 32.8
23:00 1028 30.36 857 25.31 6.6 43.8 63 -0 32
23:05 1028 30.36 857 25.31 6.9 44.4 63 0.3 32.5
23:10 1028 30.36 857 25.31 6.8 44.2 63 0.3 32.5
23:15 1028 30.36 857 25.31 6.6 43.8 65 0.5 32.9
23:20 1028 30.36 857 25.31 6.8 44.2 61 -0.2 31.7
23:25 1028 30.36 857 25.31 6.9 44.5 62 0.2 32.4
23:30 1028 30.36 857 25.31 6.3 43.3 64 -0 31.9
23:35 1028 30.36 857 25.31 5.9 42.5 66 0.1 32.2
23:40 1028 30.36 857 25.31 5.8 42.4 67 0.1 32.2
23:45 1028 30.36 857 25.31 5.7 42.2 67 0.1 32.1
23:50 1028 30.36 857 25.31 5.7 42.3 67 0.1 32.2
23:55 1028 30.36 857 25.31 5.5 41.8 68 0 32.1
24:00 1028 30.36 857 25.31 5.5 41.8 67 -0.1 31.8